Pagrindinis puslapis
METAR-TAF:

METAR-TAF

Oro uostai :

San Gabriel da Kašoeira, Amazonė, Brazilija

platuma: 00-08S, ilguma: 067-05W, Aukštis: 90 m

Dabartinis oras

Ataskaita buvo paskelbta 7 valandos ir 50 minutes, ne 19:00 UTC
Vėjas 4 kt iš Pietų/Pietvakarių
Temperatūra 27°C
Drėgmė 89%
Slėgis 1010 hPa
Matomumas 10 km arba daugiau
Apsiniaukę ne aukštis 1200 ft

METAR: SBUA 061900Z 21004KT 9999 OVC012 27/25 Q1010

Laikas: 22:50 (02:50 UTC)


TAF: trūkstamas

Orai ataskaitas ir orų prognozės (METAR, TAF).

turimą stotys yra geltonos ir raudonos taškus žemėlapyje.

Perkelti pele per norėdami pamatyti stoties vardą.

Tada spustelėkite, norėdami matyti oro stebėjimo ir prognozės.

Norėdami pakeisti žemėlapį: spustelėkite ant žalios mygtukų su juodo kryžiaus žemyn,; žalią mygtuką su brūkšneliu, jei norite nutolinti; arba žalių rodyklių gretimoms žemėlapius.


METAR-TAF: